JAL528 RJCC-RJTT
Flight info
| Callsign | JAL528 |
|---|---|
| Flight time | N/A |
| Altitude | 40000 |
| Route | TOBBY Y10 GODIN |
| Aircraft | A359/H-SDE2E3GHIJ3J4J5LM1ORWXY/LB1D1 |
Departure
| Time | 2026-02-17 12:31 |
|---|---|
| Airport | New Chitose Airport (RJCC) |
Arrival
| Time | N/A |
|---|---|
| Airport | Tokyo Haneda International Airport (RJTT) |
| Time | Latitude | Longitude | Altitude | Speed | Heading |
|---|---|---|---|---|---|
| 2026-02-17 12:09 | 42.78608 | 141.68247 | 97 ft | 0 kts | 295° |
| 2026-02-17 12:22 | 42.78604 | 141.68259 | 95 ft | 3 kts | 289° |
| 2026-02-17 12:23 | 42.78593 | 141.68310 | 93 ft | 3 kts | 295° |
| 2026-02-17 12:23 | 42.78583 | 141.68333 | 93 ft | 3 kts | 314° |
| 2026-02-17 12:23 | 42.78569 | 141.68348 | 92 ft | 3 kts | 343° |
| 2026-02-17 12:23 | 42.78550 | 141.68351 | 95 ft | 3 kts | 12° |
| 2026-02-17 12:24 | 42.78531 | 141.68343 | 92 ft | 2 kts | 28° |
| 2026-02-17 12:24 | 42.78526 | 141.68339 | 92 ft | 0 kts | 30° |
| 2026-02-17 12:29 | 42.78542 | 141.68351 | 92 ft | 8 kts | 27° |
| 2026-02-17 12:29 | 42.78644 | 141.68399 | 95 ft | 20 kts | 14° |
| 2026-02-17 12:29 | 42.78773 | 141.68413 | 92 ft | 15 kts | 355° |
| 2026-02-17 12:30 | 42.78857 | 141.68403 | 95 ft | 12 kts | 12° |
| 2026-02-17 12:30 | 42.78908 | 141.68520 | 95 ft | 15 kts | 68° |
| 2026-02-17 12:30 | 42.78935 | 141.68673 | 94 ft | 16 kts | 102° |
| 2026-02-17 12:31 | 42.78738 | 141.68830 | 95 ft | 19 kts | 173° |
| 2026-02-17 12:31 | 42.78381 | 141.68893 | 94 ft | 90 kts | 173° |
| 2026-02-17 12:31 | 42.77521 | 141.69043 | 124 ft | 151 kts | 172° |
| 2026-02-17 12:31 | 42.76488 | 141.69210 | 840 ft | 147 kts | 173° |
| 2026-02-17 12:32 | 42.75468 | 141.69354 | 1594 ft | 149 kts | 173° |
| 2026-02-17 12:32 | 42.74456 | 141.69507 | 2286 ft | 145 kts | 171° |
| 2026-02-17 12:32 | 42.73460 | 141.69744 | 2924 ft | 144 kts | 170° |
| 2026-02-17 12:32 | 42.72442 | 141.69996 | 3404 ft | 159 kts | 173° |
| 2026-02-17 12:33 | 42.71266 | 141.70258 | 3714 ft | 184 kts | 175° |
| 2026-02-17 12:33 | 42.69914 | 141.70539 | 4070 ft | 206 kts | 175° |
| 2026-02-17 12:33 | 42.68443 | 141.70839 | 4526 ft | 226 kts | 175° |
| 2026-02-17 12:33 | 42.66820 | 141.71166 | 5034 ft | 243 kts | 175° |
| 2026-02-17 12:34 | 42.65124 | 141.71518 | 5840 ft | 249 kts | 175° |
| 2026-02-17 12:34 | 42.63402 | 141.71867 | 6707 ft | 253 kts | 176° |
| 2026-02-17 12:34 | 42.61639 | 141.72094 | 7564 ft | 256 kts | 180° |
| 2026-02-17 12:35 | 42.57981 | 141.72308 | 9232 ft | 269 kts | 182° |
| 2026-02-17 12:35 | 42.56092 | 141.72405 | 10070 ft | 274 kts | 182° |
| 2026-02-17 12:35 | 42.54168 | 141.72502 | 10685 ft | 289 kts | 182° |
| 2026-02-17 12:35 | 42.52080 | 141.72612 | 11085 ft | 311 kts | 181° |
| 2026-02-17 12:36 | 42.49863 | 141.72741 | 11657 ft | 325 kts | 181° |
| 2026-02-17 12:36 | 42.47578 | 141.72876 | 12444 ft | 331 kts | 182° |
| 2026-02-17 12:36 | 42.45261 | 141.73009 | 13258 ft | 335 kts | 181° |
| 2026-02-17 12:36 | 42.42914 | 141.73143 | 14081 ft | 339 kts | 181° |
| 2026-02-17 12:37 | 42.40541 | 141.73282 | 14951 ft | 342 kts | 181° |
| 2026-02-17 12:37 | 42.38151 | 141.73419 | 15772 ft | 345 kts | 182° |
| 2026-02-17 12:37 | 42.35738 | 141.73554 | 16539 ft | 349 kts | 182° |
| 2026-02-17 12:37 | 42.33304 | 141.73688 | 17277 ft | 351 kts | 182° |
| 2026-02-17 12:38 | 42.30846 | 141.73825 | 17999 ft | 355 kts | 182° |
| 2026-02-17 12:38 | 42.28370 | 141.73963 | 18747 ft | 358 kts | 182° |
| 2026-02-17 12:38 | 42.26719 | 141.74056 | 19212 ft | 360 kts | 182° |
| 2026-02-17 12:39 | 42.21648 | 141.74347 | 20596 ft | 368 kts | 182° |
| 2026-02-17 12:39 | 42.18228 | 141.74535 | 21467 ft | 374 kts | 182° |
| 2026-02-17 12:39 | 42.15618 | 141.74680 | 22104 ft | 377 kts | 182° |
| 2026-02-17 12:39 | 42.13841 | 141.74778 | 22526 ft | 380 kts | 182° |
| 2026-02-17 12:40 | 42.11185 | 141.74927 | 23145 ft | 383 kts | 182° |
| 2026-02-17 12:40 | 42.07630 | 141.75127 | 23933 ft | 388 kts | 182° |
| 2026-02-17 12:40 | 42.05838 | 141.75227 | 24300 ft | 390 kts | 182° |
| 2026-02-17 12:40 | 42.03103 | 141.75381 | 24891 ft | 394 kts | 182° |
| 2026-02-17 12:41 | 42.00352 | 141.75537 | 25475 ft | 397 kts | 182° |
| 2026-02-17 12:41 | 41.97579 | 141.75693 | 26032 ft | 400 kts | 182° |
| 2026-02-17 12:41 | 41.94786 | 141.75847 | 26579 ft | 403 kts | 182° |
| 2026-02-17 12:41 | 41.91051 | 141.76057 | 27294 ft | 407 kts | 182° |
| 2026-02-17 12:42 | 41.89132 | 141.76197 | 27654 ft | 410 kts | 181° |
| 2026-02-17 12:42 | 41.86274 | 141.76452 | 28139 ft | 413 kts | 181° |
| 2026-02-17 12:42 | 41.83394 | 141.76737 | 28632 ft | 416 kts | 181° |
| 2026-02-17 12:43 | 41.77571 | 141.77326 | 29560 ft | 422 kts | 181° |
| 2026-02-17 12:43 | 41.74633 | 141.77614 | 30033 ft | 425 kts | 181° |
| 2026-02-17 12:43 | 41.71711 | 141.77893 | 30439 ft | 428 kts | 181° |
| 2026-02-17 12:43 | 41.68730 | 141.78172 | 30807 ft | 431 kts | 181° |
| 2026-02-17 12:44 | 41.65724 | 141.78451 | 31181 ft | 434 kts | 181° |
| 2026-02-17 12:44 | 41.62695 | 141.78732 | 31539 ft | 438 kts | 181° |
| 2026-02-17 12:44 | 41.59642 | 141.79014 | 31892 ft | 441 kts | 182° |
| 2026-02-17 12:44 | 41.56562 | 141.79297 | 32225 ft | 444 kts | 182° |
| 2026-02-17 12:45 | 41.53470 | 141.79557 | 32550 ft | 445 kts | 184° |
| 2026-02-17 12:45 | 41.50382 | 141.79465 | 32843 ft | 443 kts | 190° |
| 2026-02-17 12:45 | 41.47339 | 141.78859 | 33159 ft | 441 kts | 197° |
| 2026-02-17 12:45 | 41.44335 | 141.78007 | 33459 ft | 442 kts | 198° |
| 2026-02-17 12:46 | 41.41336 | 141.77060 | 33761 ft | 443 kts | 199° |
| 2026-02-17 12:46 | 41.38335 | 141.76067 | 34025 ft | 445 kts | 199° |
| 2026-02-17 12:46 | 41.35359 | 141.75066 | 34274 ft | 448 kts | 199° |
| 2026-02-17 12:47 | 41.29303 | 141.73051 | 35001 ft | 447 kts | 200° |
| 2026-02-17 12:47 | 41.26276 | 141.72060 | 35345 ft | 447 kts | 200° |
| 2026-02-17 12:47 | 41.23254 | 141.71083 | 35663 ft | 447 kts | 200° |
| 2026-02-17 12:47 | 41.20227 | 141.70109 | 35985 ft | 447 kts | 200° |
| 2026-02-17 12:48 | 41.17198 | 141.69132 | 36296 ft | 447 kts | 200° |
| 2026-02-17 12:48 | 41.14173 | 141.68153 | 36546 ft | 448 kts | 200° |
| 2026-02-17 12:48 | 41.11140 | 141.67172 | 36831 ft | 448 kts | 200° |
| 2026-02-17 12:48 | 41.08121 | 141.66197 | 37196 ft | 445 kts | 200° |
| 2026-02-17 12:49 | 41.05119 | 141.65232 | 37592 ft | 442 kts | 201° |
| 2026-02-17 12:49 | 41.02142 | 141.64276 | 37919 ft | 440 kts | 201° |
| 2026-02-17 12:49 | 40.99156 | 141.63315 | 38160 ft | 440 kts | 201° |
| 2026-02-17 12:49 | 40.96180 | 141.62358 | 38390 ft | 441 kts | 201° |
| 2026-02-17 12:50 | 40.93197 | 141.61400 | 38628 ft | 440 kts | 201° |
| 2026-02-17 12:50 | 40.90219 | 141.60444 | 38843 ft | 441 kts | 201° |
| 2026-02-17 12:50 | 40.87276 | 141.59500 | 39063 ft | 440 kts | 201° |
| 2026-02-17 12:51 | 40.81318 | 141.57588 | 39428 ft | 441 kts | 201° |
| 2026-02-17 12:51 | 40.78329 | 141.56632 | 39597 ft | 442 kts | 201° |
| 2026-02-17 12:51 | 40.75330 | 141.55673 | 39744 ft | 444 kts | 201° |
| 2026-02-17 12:51 | 40.72328 | 141.54715 | 39928 ft | 443 kts | 201° |
| 2026-02-17 12:52 | 40.69326 | 141.53761 | 40096 ft | 444 kts | 201° |
| 2026-02-17 12:52 | 40.66326 | 141.52808 | 40263 ft | 444 kts | 202° |
| 2026-02-17 12:52 | 40.63314 | 141.51851 | 40383 ft | 445 kts | 202° |
| 2026-02-17 12:52 | 40.60299 | 141.50892 | 40518 ft | 446 kts | 202° |
| 2026-02-17 12:53 | 40.57280 | 141.49934 | 40670 ft | 446 kts | 202° |
| 2026-02-17 12:53 | 40.54262 | 141.48978 | 40838 ft | 446 kts | 202° |
| 2026-02-17 12:53 | 40.51246 | 141.48023 | 41001 ft | 446 kts | 202° |
| 2026-02-17 12:53 | 40.48236 | 141.47072 | 41152 ft | 446 kts | 202° |
| 2026-02-17 12:54 | 40.45218 | 141.46117 | 41276 ft | 446 kts | 202° |
| 2026-02-17 12:54 | 40.42234 | 141.45173 | 41396 ft | 447 kts | 202° |
| 2026-02-17 12:54 | 40.39234 | 141.44231 | 41185 ft | 439 kts | 202° |
| 2026-02-17 12:55 | 40.33275 | 141.42350 | 40209 ft | 443 kts | 202° |
| 2026-02-17 12:55 | 40.27232 | 141.40433 | 40126 ft | 448 kts | 202° |
| 2026-02-17 12:56 | 40.21165 | 141.38524 | 40130 ft | 448 kts | 202° |
| 2026-02-17 12:56 | 40.15096 | 141.36628 | 40126 ft | 448 kts | 202° |
| 2026-02-17 12:57 | 40.09069 | 141.34755 | 40119 ft | 448 kts | 202° |
| 2026-02-17 12:57 | 40.03008 | 141.32865 | 40119 ft | 448 kts | 202° |
| 2026-02-17 12:58 | 39.96954 | 141.30961 | 40127 ft | 447 kts | 202° |
| 2026-02-17 12:58 | 39.90919 | 141.28963 | 40133 ft | 447 kts | 203° |
| 2026-02-17 12:59 | 39.81880 | 141.25952 | 40130 ft | 447 kts | 203° |
| 2026-02-17 12:59 | 39.75848 | 141.23971 | 40127 ft | 447 kts | 203° |
| 2026-02-17 13:00 | 39.69811 | 141.22001 | 40126 ft | 447 kts | 203° |
| 2026-02-17 13:00 | 39.63789 | 141.20037 | 40128 ft | 446 kts | 203° |
| 2026-02-17 13:01 | 39.57765 | 141.18074 | 40129 ft | 446 kts | 203° |
| 2026-02-17 13:01 | 39.51743 | 141.16115 | 40128 ft | 446 kts | 203° |
| 2026-02-17 13:02 | 39.45715 | 141.14157 | 40130 ft | 446 kts | 203° |
| 2026-02-17 13:03 | 39.36695 | 141.11329 | 40132 ft | 447 kts | 202° |
| 2026-02-17 13:03 | 39.30625 | 141.09521 | 40129 ft | 448 kts | 202° |
| 2026-02-17 13:04 | 39.24556 | 141.07711 | 40128 ft | 448 kts | 202° |
| 2026-02-17 13:04 | 39.18481 | 141.05890 | 40129 ft | 447 kts | 202° |
| 2026-02-17 13:05 | 39.12418 | 141.04069 | 40128 ft | 447 kts | 202° |
| 2026-02-17 13:05 | 39.06360 | 141.02251 | 40132 ft | 446 kts | 202° |
| 2026-02-17 13:06 | 39.00346 | 141.00452 | 40130 ft | 446 kts | 202° |
| 2026-02-17 13:06 | 38.94304 | 140.98648 | 40127 ft | 446 kts | 202° |
| 2026-02-17 13:07 | 38.85212 | 140.95936 | 40128 ft | 447 kts | 203° |
| 2026-02-17 13:07 | 38.79152 | 140.94136 | 40136 ft | 447 kts | 203° |
| 2026-02-17 13:08 | 38.73095 | 140.92343 | 40137 ft | 446 kts | 203° |
| 2026-02-17 13:08 | 38.67041 | 140.90549 | 40142 ft | 446 kts | 203° |
| 2026-02-17 13:09 | 38.60990 | 140.88757 | 40137 ft | 446 kts | 203° |
| 2026-02-17 13:09 | 38.54976 | 140.86981 | 40137 ft | 446 kts | 203° |
| 2026-02-17 13:10 | 38.48936 | 140.85198 | 40137 ft | 445 kts | 203° |
| 2026-02-17 13:11 | 38.39869 | 140.82531 | 40145 ft | 445 kts | 203° |
| 2026-02-17 13:11 | 38.33820 | 140.80755 | 40147 ft | 446 kts | 203° |
| 2026-02-17 13:12 | 38.27761 | 140.78979 | 40149 ft | 447 kts | 203° |
| 2026-02-17 13:12 | 38.21731 | 140.77219 | 40146 ft | 447 kts | 203° |
| 2026-02-17 13:13 | 38.15678 | 140.75455 | 40155 ft | 446 kts | 204° |
| 2026-02-17 13:13 | 38.09629 | 140.73685 | 40156 ft | 446 kts | 203° |
| 2026-02-17 13:14 | 38.03571 | 140.71922 | 40156 ft | 446 kts | 204° |
| 2026-02-17 13:14 | 37.97526 | 140.70166 | 40149 ft | 446 kts | 204° |
| 2026-02-17 13:15 | 37.91485 | 140.68419 | 39958 ft | 444 kts | 204° |
| 2026-02-17 13:15 | 37.88476 | 140.67549 | 39728 ft | 443 kts | 204° |
| 2026-02-17 13:15 | 37.85468 | 140.66682 | 39485 ft | 442 kts | 204° |
| 2026-02-17 13:15 | 37.82476 | 140.65820 | 39229 ft | 440 kts | 204° |
| 2026-02-17 13:16 | 37.79490 | 140.64958 | 38983 ft | 440 kts | 204° |
| 2026-02-17 13:16 | 37.76507 | 140.64098 | 38733 ft | 440 kts | 204° |
| 2026-02-17 13:16 | 37.73567 | 140.63253 | 38482 ft | 439 kts | 204° |
| 2026-02-17 13:16 | 37.70584 | 140.62393 | 38232 ft | 439 kts | 204° |
| 2026-02-17 13:17 | 37.67604 | 140.61530 | 37986 ft | 439 kts | 204° |
| 2026-02-17 13:17 | 37.64635 | 140.60674 | 37492 ft | 436 kts | 204° |
| 2026-02-17 13:17 | 37.61688 | 140.59826 | 36862 ft | 434 kts | 204° |
| 2026-02-17 13:17 | 37.59846 | 140.59295 | 36448 ft | 434 kts | 204° |
| 2026-02-17 13:18 | 37.56960 | 140.58466 | 35787 ft | 434 kts | 203° |
| 2026-02-17 13:18 | 37.54010 | 140.57618 | 35090 ft | 434 kts | 203° |
| 2026-02-17 13:18 | 37.51057 | 140.56765 | 34332 ft | 436 kts | 203° |
| 2026-02-17 13:19 | 37.45117 | 140.55050 | 32799 ft | 438 kts | 202° |
| 2026-02-17 13:19 | 37.42194 | 140.54213 | 32257 ft | 434 kts | 202° |
| 2026-02-17 13:19 | 37.39227 | 140.53369 | 31687 ft | 430 kts | 202° |
| 2026-02-17 13:19 | 37.36317 | 140.52544 | 31127 ft | 427 kts | 202° |
| 2026-02-17 13:20 | 37.33439 | 140.51722 | 30639 ft | 438 kts | 202° |
| 2026-02-17 13:20 | 37.30421 | 140.50842 | 30532 ft | 448 kts | 202° |
| 2026-02-17 13:20 | 37.27404 | 140.49976 | 29939 ft | 443 kts | 201° |
| 2026-02-17 13:20 | 37.24381 | 140.49107 | 28868 ft | 449 kts | 201° |
| 2026-02-17 13:21 | 37.21342 | 140.48237 | 28200 ft | 446 kts | 201° |
| 2026-02-17 13:21 | 37.18333 | 140.47390 | 27614 ft | 441 kts | 201° |
| 2026-02-17 13:21 | 37.15353 | 140.46556 | 27032 ft | 436 kts | 200° |
| 2026-02-17 13:21 | 37.12437 | 140.45748 | 26576 ft | 418 kts | 200° |
| 2026-02-17 13:22 | 37.09677 | 140.44992 | 26117 ft | 395 kts | 201° |
| 2026-02-17 13:22 | 37.07058 | 140.44271 | 25676 ft | 375 kts | 201° |
| 2026-02-17 13:22 | 37.04579 | 140.43580 | 25262 ft | 356 kts | 201° |
| 2026-02-17 13:23 | 36.99944 | 140.42266 | 24177 ft | 331 kts | 202° |
| 2026-02-17 13:23 | 36.97735 | 140.41631 | 23613 ft | 321 kts | 202° |
| 2026-02-17 13:23 | 36.95579 | 140.41007 | 23107 ft | 317 kts | 202° |
| 2026-02-17 13:23 | 36.93433 | 140.40382 | 22650 ft | 316 kts | 202° |
| 2026-02-17 13:24 | 36.91294 | 140.39768 | 22195 ft | 315 kts | 201° |
| 2026-02-17 13:24 | 36.89166 | 140.39164 | 21746 ft | 313 kts | 201° |
| 2026-02-17 13:24 | 36.87043 | 140.38569 | 21295 ft | 311 kts | 201° |
| 2026-02-17 13:24 | 36.84942 | 140.37978 | 20835 ft | 308 kts | 201° |
| 2026-02-17 13:25 | 36.82855 | 140.37385 | 20373 ft | 307 kts | 201° |
| 2026-02-17 13:25 | 36.80783 | 140.36804 | 20065 ft | 308 kts | 201° |
| 2026-02-17 13:25 | 36.78695 | 140.36222 | 19632 ft | 307 kts | 201° |
| 2026-02-17 13:25 | 36.76615 | 140.35641 | 19181 ft | 307 kts | 201° |
| 2026-02-17 13:26 | 36.74531 | 140.35056 | 18717 ft | 306 kts | 201° |
| 2026-02-17 13:26 | 36.72448 | 140.34510 | 18295 ft | 305 kts | 199° |
| 2026-02-17 13:26 | 36.70354 | 140.34062 | 17876 ft | 305 kts | 198° |
| 2026-02-17 13:27 | 36.66169 | 140.33266 | 16936 ft | 303 kts | 197° |
| 2026-02-17 13:27 | 36.64090 | 140.32881 | 16511 ft | 301 kts | 197° |
| 2026-02-17 13:27 | 36.62024 | 140.32497 | 16167 ft | 297 kts | 196° |
| 2026-02-17 13:27 | 36.60029 | 140.32122 | 16086 ft | 292 kts | 196° |
| 2026-02-17 13:28 | 36.58017 | 140.31730 | 16088 ft | 292 kts | 197° |
| 2026-02-17 13:28 | 36.56687 | 140.31465 | 16104 ft | 292 kts | 197° |
| 2026-02-17 13:28 | 36.54010 | 140.30927 | 16106 ft | 291 kts | 197° |
| 2026-02-17 13:28 | 36.52683 | 140.30660 | 16095 ft | 291 kts | 197° |
| 2026-02-17 13:29 | 36.50685 | 140.30258 | 16103 ft | 291 kts | 197° |
| 2026-02-17 13:29 | 36.48686 | 140.29855 | 16097 ft | 291 kts | 197° |
| 2026-02-17 13:29 | 36.46698 | 140.29453 | 16253 ft | 282 kts | 198° |
| 2026-02-17 13:29 | 36.44922 | 140.29011 | 17274 ft | 235 kts | 204° |
| 2026-02-17 13:30 | 36.43478 | 140.28456 | 17967 ft | 205 kts | 212° |
| 2026-02-17 13:30 | 36.42186 | 140.27681 | 17665 ft | 214 kts | 221° |
| 2026-02-17 13:30 | 36.40940 | 140.26498 | 16868 ft | 240 kts | 230° |
| 2026-02-17 13:31 | 36.38152 | 140.23192 | 15247 ft | 294 kts | 230° |
| 2026-02-17 13:31 | 36.36794 | 140.21395 | 15631 ft | 279 kts | 230° |